Time;durP1;ratioP1;P1;durP2;ratioP2;P2;SDS_P1;SDS_P2;PMS_P1;PMS_P2;Temp;Humidity;BMP_temperature;BMP_pressure;BME280_temperature;BME280_humidity;BME280_pressure;Samples;Min_cycle;Max_cycle;Signal;HPM_P1;HPM_P2
2022/11/18 00:03:00;;;;;;;15.93;10.47;;;;;;;;;;6556217;28;20598;-91
2022/11/18 00:06:13;;;;;;;16.07;10.50;;;;;;;;;;6555887;28;20181;-91
2022/11/18 00:09:23;;;;;;;12.43;9.33;;;;;;;;;;6556222;28;20184;-91
2022/11/18 00:16:03;;;;;;;15.10;9.43;;;;;;;;;;6574157;28;20168;-91
2022/11/18 00:19:14;;;;;;;11.73;9.17;;;;;;;;;;6555523;28;20251;-92
2022/11/18 00:22:24;;;;;;;15.43;10.77;;;;;;;;;;6556797;28;20185;-91
2022/11/18 00:25:35;;;;;;;13.27;9.43;;;;;;;;;;6573508;28;20372;-91
2022/11/18 00:28:45;;;;;;;13.67;9.43;;;;;;;;;;6555865;28;20705;-91
2022/11/18 00:31:56;;;;;;;14.83;10.00;;;;;;;;;;6555305;28;20192;-93
2022/11/18 00:35:06;;;;;;;15.70;10.27;;;;;;;;;;6540101;28;20219;-91
2022/11/18 00:38:17;;;;;;;13.90;9.50;;;;;;;;;;6572499;28;20185;-92
2022/11/18 00:42:49;;;;;;;17.83;11.57;;;;;;;;;;6555135;28;20259;-92
2022/11/18 00:44:57;;;;;;;17.77;11.93;;;;;;;;;;6571900;28;20591;-91
2022/11/18 00:48:08;;;;;;;14.50;10.60;;;;;;;;;;6571670;28;20181;-92
2022/11/18 00:51:18;;;;;;;16.70;10.60;;;;;;;;;;6571583;28;20185;-91
2022/11/18 00:54:28;;;;;;;15.30;10.77;;;;;;;;;;6554753;28;20692;-92
2022/11/18 00:57:38;;;;;;;13.67;9.07;;;;;;;;;;6555159;28;20534;-92
2022/11/18 01:00:50;;;;;;;10.13;7.77;;;;;;;;;;6555263;28;20577;-91
2022/11/18 01:04:00;;;;;;;11.87;8.00;;;;;;;;;;6555451;28;20572;-91
2022/11/18 01:07:11;;;;;;;11.67;8.83;;;;;;;;;;6539224;28;20192;-91
2022/11/18 01:10:21;;;;;;;9.50;6.77;;;;;;;;;;6571140;28;20181;-91
2022/11/18 01:13:31;;;;;;;9.83;7.50;;;;;;;;;;6570638;28;20184;-92
2022/11/18 01:16:42;;;;;;;11.27;8.60;;;;;;;;;;6555083;28;20184;-91
2022/11/18 01:19:52;;;;;;;12.03;8.97;;;;;;;;;;6554519;28;20173;-92
2022/11/18 01:23:03;;;;;;;12.90;9.70;;;;;;;;;;6554800;28;20181;-91
2022/11/18 01:26:14;;;;;;;13.17;9.33;;;;;;;;;;6553653;28;20240;-92
2022/11/18 01:29:26;;;;;;;10.20;7.50;;;;;;;;;;6554494;28;20213;-91
2022/11/18 01:32:36;;;;;;;12.23;7.57;;;;;;;;;;6572039;28;20188;-91
2022/11/18 01:35:46;;;;;;;13.67;8.47;;;;;;;;;;6570533;28;20628;-91
2022/11/18 01:38:58;;;;;;;13.30;9.10;;;;;;;;;;6553651;28;20173;-92
2022/11/18 01:42:14;;;;;;;11.87;8.63;;;;;;;;;;6553591;28;20183;-91
2022/11/18 01:45:36;;;;;;;10.70;7.90;;;;;;;;;;6596215;28;20203;-92
2022/11/18 01:48:49;;;;;;;9.70;7.50;;;;;;;;;;6596040;28;20196;-92
2022/11/18 01:51:59;;;;;;;11.80;8.63;;;;;;;;;;6579212;28;20215;-92
2022/11/18 01:55:13;;;;;;;13.43;8.93;;;;;;;;;;6595790;28;20516;-91
2022/11/18 01:58:29;;;;;;;18.63;12.13;;;;;;;;;;6579954;28;20187;-91
2022/11/18 02:01:40;;;;;;;17.53;13.00;;;;;;;;;;6596263;28;20177;-91
2022/11/18 02:04:52;;;;;;;16.33;11.43;;;;;;;;;;6579300;28;20216;-92
2022/11/18 02:08:04;;;;;;;12.13;8.97;;;;;;;;;;6580128;28;20234;-91
2022/11/18 02:14:45;;;;;;;8.93;6.97;;;;;;;;;;6597445;28;20640;-92
2022/11/18 02:18:09;;;;;;;13.17;9.23;;;;;;;;;;6578992;28;20180;-91
2022/11/18 02:21:22;;;;;;;9.20;6.27;;;;;;;;;;6596935;28;20543;-91
2022/11/18 02:24:39;;;;;;;12.90;8.73;;;;;;;;;;6595343;28;20277;-92
2022/11/18 02:27:49;;;;;;;9.30;7.10;;;;;;;;;;6595429;28;20673;-92
2022/11/18 02:31:01;;;;;;;11.90;9.77;;;;;;;;;;6595060;28;20180;-91
2022/11/18 02:34:11;;;;;;;13.03;9.37;;;;;;;;;;6594978;28;20176;-91
2022/11/18 02:37:31;;;;;;;8.37;7.10;;;;;;;;;;6595560;28;20184;-91
2022/11/18 02:40:46;;;;;;;11.83;8.80;;;;;;;;;;6595504;28;20622;-92
2022/11/18 02:44:10;;;;;;;10.00;6.73;;;;;;;;;;6578982;28;20212;-91
2022/11/18 02:47:21;;;;;;;11.53;8.80;;;;;;;;;;6579046;28;20184;-91
2022/11/18 02:50:32;;;;;;;7.47;5.83;;;;;;;;;;6596580;28;20195;-92
2022/11/18 02:53:44;;;;;;;12.13;8.37;;;;;;;;;;6578252;28;20179;-92
2022/11/18 02:56:56;;;;;;;13.40;9.57;;;;;;;;;;6577882;28;20183;-92
2022/11/18 03:00:07;;;;;;;15.67;9.80;;;;;;;;;;6578063;28;20184;-91
2022/11/18 03:03:25;;;;;;;22.20;12.80;;;;;;;;;;6579533;28;20661;-92
2022/11/18 03:06:40;;;;;;;12.73;8.13;;;;;;;;;;6584570;28;20238;-92
2022/11/18 03:09:53;;;;;;;13.70;9.20;;;;;;;;;;6599507;28;20180;-92
2022/11/18 03:13:19;;;;;;;11.03;8.30;;;;;;;;;;6600650;28;20211;-92
2022/11/18 03:16:33;;;;;;;11.73;9.03;;;;;;;;;;6584069;28;20184;-92
2022/11/18 03:19:58;;;;;;;19.70;12.37;;;;;;;;;;6582806;28;20180;-92
2022/11/18 03:23:28;;;;;;;13.07;9.07;;;;;;;;;;6581654;28;20259;-92
2022/11/18 03:26:41;;;;;;;16.23;12.20;;;;;;;;;;6600336;28;20246;-92
2022/11/18 03:29:55;;;;;;;16.33;11.70;;;;;;;;;;6582952;28;20211;-92
2022/11/18 03:33:09;;;;;;;13.60;9.87;;;;;;;;;;6599790;28;20299;-92
2022/11/18 03:36:21;;;;;;;8.23;6.70;;;;;;;;;;6583517;28;20180;-92
2022/11/18 03:39:33;;;;;;;14.27;9.67;;;;;;;;;;6600464;28;20534;-91
2022/11/18 03:42:47;;;;;;;23.37;17.00;;;;;;;;;;6600115;28;20173;-92
2022/11/18 03:46:09;;;;;;;19.63;12.70;;;;;;;;;;6600658;28;20282;-92
2022/11/18 03:49:29;;;;;;;16.27;11.37;;;;;;;;;;6582154;28;20188;-92
2022/11/18 03:52:40;;;;;;;13.40;9.97;;;;;;;;;;6582558;28;20208;-92
2022/11/18 03:55:53;;;;;;;13.17;10.63;;;;;;;;;;6582433;28;20195;-92
2022/11/18 03:59:20;;;;;;;14.47;9.60;;;;;;;;;;6599768;28;20172;-92
2022/11/18 04:02:30;;;;;;;13.97;9.80;;;;;;;;;;6595879;28;20189;-92
2022/11/18 04:05:41;;;;;;;15.40;10.33;;;;;;;;;;6598325;28;20285;-92
2022/11/18 04:08:54;;;;;;;12.23;9.30;;;;;;;;;;6582386;28;20275;-92
2022/11/18 04:12:07;;;;;;;19.80;13.87;;;;;;;;;;6583117;28;20235;-91
2022/11/18 04:15:18;;;;;;;26.10;16.27;;;;;;;;;;6600096;28;20188;-92
2022/11/18 04:18:28;;;;;;;15.07;10.53;;;;;;;;;;6581456;28;20230;-92
2022/11/18 04:21:38;;;;;;;16.13;11.87;;;;;;;;;;6598849;28;20701;-92
2022/11/18 04:24:49;;;;;;;15.30;10.90;;;;;;;;;;6580958;28;20240;-92
2022/11/18 04:27:59;;;;;;;15.90;9.63;;;;;;;;;;6598750;28;20230;-92
2022/11/18 04:31:11;;;;;;;17.93;11.17;;;;;;;;;;6581535;28;20267;-91
2022/11/18 04:34:21;;;;;;;17.23;12.07;;;;;;;;;;6600195;28;20173;-92
2022/11/18 04:37:32;;;;;;;13.37;8.90;;;;;;;;;;6581393;28;20177;-92
2022/11/18 04:40:42;;;;;;;15.60;10.73;;;;;;;;;;6581381;28;20306;-91
2022/11/18 04:43:52;;;;;;;17.17;12.60;;;;;;;;;;6598940;28;20204;-91
2022/11/18 04:47:05;;;;;;;16.77;11.67;;;;;;;;;;6581219;28;20184;-92
2022/11/18 04:50:17;;;;;;;21.03;13.57;;;;;;;;;;6581302;28;20230;-92
2022/11/18 04:53:27;;;;;;;14.67;10.73;;;;;;;;;;6582163;28;20179;-92
2022/11/18 04:56:39;;;;;;;14.03;10.63;;;;;;;;;;6598690;28;20180;-92
2022/11/18 04:59:51;;;;;;;18.97;11.53;;;;;;;;;;6598895;28;20173;-92
2022/11/18 05:03:01;;;;;;;13.63;9.57;;;;;;;;;;6580723;28;20619;-92
2022/11/18 05:06:11;;;;;;;15.60;11.77;;;;;;;;;;6580169;28;20200;-92
2022/11/18 05:09:22;;;;;;;16.00;11.30;;;;;;;;;;6580548;28;20267;-91
2022/11/18 05:12:47;;;;;;;15.10;10.63;;;;;;;;;;6564650;28;20623;-91
2022/11/18 05:15:59;;;;;;;16.03;11.07;;;;;;;;;;6580974;28;20177;-92
2022/11/18 05:19:11;;;;;;;17.27;12.40;;;;;;;;;;6579954;28;20187;-92
2022/11/18 05:22:21;;;;;;;19.30;12.43;;;;;;;;;;6580426;28;20516;-92
2022/11/18 05:25:32;;;;;;;21.80;13.53;;;;;;;;;;6579517;28;20374;-92
2022/11/18 05:28:42;;;;;;;15.23;11.30;;;;;;;;;;6579540;28;20177;-92
2022/11/18 05:31:52;;;;;;;18.67;12.40;;;;;;;;;;6580737;28;20585;-92
2022/11/18 05:35:03;;;;;;;15.70;11.50;;;;;;;;;;6579937;28;20180;-92
2022/11/18 05:38:13;;;;;;;21.30;13.40;;;;;;;;;;6595901;28;20546;-92
2022/11/18 05:44:53;;;;;;;25.27;13.67;;;;;;;;;;6597386;28;20288;-92
2022/11/18 05:48:05;;;;;;;23.47;15.40;;;;;;;;;;6597175;28;20620;-92
2022/11/18 05:51:16;;;;;;;16.10;11.20;;;;;;;;;;6597704;28;20534;-92
2022/11/18 05:54:26;;;;;;;15.47;11.13;;;;;;;;;;6579636;28;20184;-92
2022/11/18 05:57:37;;;;;;;17.77;11.10;;;;;;;;;;6597237;28;20184;-92
2022/11/18 06:00:49;;;;;;;16.53;12.00;;;;;;;;;;6579273;28;20634;-92
2022/11/18 06:04:00;;;;;;;18.10;11.63;;;;;;;;;;6596966;28;20204;-92
2022/11/18 06:07:14;;;;;;;19.07;12.23;;;;;;;;;;6579213;28;20226;-92
2022/11/18 06:10:27;;;;;;;17.67;11.33;;;;;;;;;;6596160;28;20614;-92
2022/11/18 06:13:40;;;;;;;17.37;11.27;;;;;;;;;;6578925;28;20176;-92
2022/11/18 06:16:52;;;;;;;17.77;12.00;;;;;;;;;;6579439;28;20522;-92
2022/11/18 06:20:03;;;;;;;21.07;13.17;;;;;;;;;;6579132;28;20180;-92
2022/11/18 06:23:13;;;;;;;23.43;13.80;;;;;;;;;;6578310;28;20179;-92
2022/11/18 06:26:24;;;;;;;23.70;13.77;;;;;;;;;;6578222;28;20220;-92
2022/11/18 06:29:34;;;;;;;21.23;14.17;;;;;;;;;;6578740;28;20177;-92
2022/11/18 06:32:45;;;;;;;19.83;13.30;;;;;;;;;;6578804;28;20255;-92
2022/11/18 06:35:55;;;;;;;20.33;13.60;;;;;;;;;;6595400;28;20189;-92
2022/11/18 06:39:05;;;;;;;16.03;10.43;;;;;;;;;;6577467;28;20184;-92
2022/11/18 06:49:18;;;;;;;19.60;13.17;;;;;;;;;;6596913;28;20314;-92
2022/11/18 06:52:28;;;;;;;22.50;14.63;;;;;;;;;;6578379;28;20176;-92
2022/11/18 06:55:38;;;;;;;22.47;14.77;;;;;;;;;;6577820;28;20184;-92
2022/11/18 06:58:56;;;;;;;14.30;10.83;;;;;;;;;;6578503;28;20267;-92
2022/11/18 07:02:06;;;;;;;19.93;13.23;;;;;;;;;;6596167;28;20520;-92
2022/11/18 07:05:17;;;;;;;20.90;13.33;;;;;;;;;;6595542;28;20279;-92
2022/11/18 07:08:28;;;;;;;19.23;12.77;;;;;;;;;;6577865;28;20246;-92
2022/11/18 07:11:40;;;;;;;20.23;13.47;;;;;;;;;;6594441;28;20199;-92
2022/11/18 07:14:50;;;;;;;20.60;13.23;;;;;;;;;;6596402;28;20168;-92
2022/11/18 07:18:00;;;;;;;16.90;12.07;;;;;;;;;;6578210;28;20176;-91
2022/11/18 07:21:18;;;;;;;17.93;12.27;;;;;;;;;;6595792;28;20172;-91
2022/11/18 07:24:30;;;;;;;22.33;13.57;;;;;;;;;;6594455;28;20301;-92
2022/11/18 07:27:40;;;;;;;19.07;12.37;;;;;;;;;;6578502;28;20284;-92
2022/11/18 07:30:52;;;;;;;20.00;13.67;;;;;;;;;;6577982;28;20229;-92
2022/11/18 07:34:02;;;;;;;21.20;13.97;;;;;;;;;;6578246;28;20180;-92
2022/11/18 07:37:12;;;;;;;16.03;10.93;;;;;;;;;;6577688;28;20219;-92
2022/11/18 07:40:23;;;;;;;19.57;12.73;;;;;;;;;;6577284;28;20177;-92
2022/11/18 07:43:34;;;;;;;22.30;14.47;;;;;;;;;;6577554;28;20243;-92
2022/11/18 07:46:44;;;;;;;26.67;16.27;;;;;;;;;;6577558;28;20180;-92
2022/11/18 07:49:55;;;;;;;23.17;14.93;;;;;;;;;;6579296;28;20263;-92
2022/11/18 07:53:05;;;;;;;21.67;13.83;;;;;;;;;;6582217;28;20677;-92
2022/11/18 07:56:15;;;;;;;25.33;17.27;;;;;;;;;;6582514;28;20581;-92
2022/11/18 07:59:26;;;;;;;20.67;13.83;;;;;;;;;;6581841;28;20188;-92
2022/11/18 08:02:36;;;;;;;21.37;14.57;;;;;;;;;;6581759;28;20621;-92
2022/11/18 08:05:46;;;;;;;23.33;14.83;;;;;;;;;;6582149;28;20212;-92
2022/11/18 08:08:57;;;;;;;20.53;14.10;;;;;;;;;;6566269;28;20227;-92
2022/11/18 08:12:08;;;;;;;22.03;14.10;;;;;;;;;;6565651;28;20184;-92
2022/11/18 08:15:18;;;;;;;22.93;14.43;;;;;;;;;;6582018;28;20185;-92
2022/11/18 08:18:30;;;;;;;20.77;14.03;;;;;;;;;;6600332;28;20637;-92
2022/11/18 08:21:40;;;;;;;24.67;15.27;;;;;;;;;;6582589;28;20298;-92
2022/11/18 08:24:50;;;;;;;23.10;15.00;;;;;;;;;;6598162;28;20250;-92
2022/11/18 08:28:02;;;;;;;20.67;14.50;;;;;;;;;;6581055;28;20188;-92
2022/11/18 08:31:16;;;;;;;19.10;12.80;;;;;;;;;;6582150;28;20176;-92
2022/11/18 08:34:26;;;;;;;18.53;12.80;;;;;;;;;;6599925;28;20262;-92
2022/11/18 08:37:37;;;;;;;22.50;13.50;;;;;;;;;;6580899;28;20173;-92
2022/11/18 08:40:48;;;;;;;22.33;13.90;;;;;;;;;;6581892;28;20180;-92
2022/11/18 08:43:59;;;;;;;20.43;13.93;;;;;;;;;;6581417;28;20216;-92
2022/11/18 08:47:09;;;;;;;16.77;11.20;;;;;;;;;;6599530;28;20211;-92
2022/11/18 08:50:20;;;;;;;19.70;11.63;;;;;;;;;;6580597;28;20631;-92
2022/11/18 08:53:31;;;;;;;18.10;11.70;;;;;;;;;;6581238;28;20180;-92
2022/11/18 08:56:41;;;;;;;23.50;13.70;;;;;;;;;;6599282;28;20203;-92
2022/11/18 08:59:52;;;;;;;24.17;15.73;;;;;;;;;;6580813;28;20207;-92
2022/11/18 09:03:04;;;;;;;19.97;12.27;;;;;;;;;;6580429;28;20230;-91
2022/11/18 09:06:14;;;;;;;18.50;12.33;;;;;;;;;;6580310;28;20299;-92
2022/11/18 09:09:24;;;;;;;18.20;12.40;;;;;;;;;;6554219;28;20185;-92
2022/11/18 09:12:36;;;;;;;25.07;15.30;;;;;;;;;;6552812;28;20181;-92
2022/11/18 09:15:46;;;;;;;27.27;15.63;;;;;;;;;;6553559;28;20196;-92
2022/11/18 09:18:58;;;;;;;26.73;17.03;;;;;;;;;;6554645;28;20173;-92
2022/11/18 09:22:09;;;;;;;16.63;11.87;;;;;;;;;;6572239;28;20235;-92
2022/11/18 09:25:19;;;;;;;34.07;16.83;;;;;;;;;;6570378;28;20568;-92
2022/11/18 09:28:30;;;;;;;34.83;18.80;;;;;;;;;;6554031;28;20177;-92
2022/11/18 09:31:40;;;;;;;33.40;18.50;;;;;;;;;;6554478;28;20583;-92
2022/11/18 09:34:50;;;;;;;35.20;19.80;;;;;;;;;;6554246;28;20179;-92
2022/11/18 09:38:01;;;;;;;39.07;20.83;;;;;;;;;;6554084;28;20235;-92
2022/11/18 09:41:29;;;;;;;33.67;19.37;;;;;;;;;;6571562;28;20210;-91
2022/11/18 09:44:41;;;;;;;25.73;15.00;;;;;;;;;;6571421;28;20215;-90
2022/11/18 09:47:54;;;;;;;24.13;13.90;;;;;;;;;;6570830;28;20181;-91
2022/11/18 09:51:04;;;;;;;16.87;10.93;;;;;;;;;;6571008;28;20264;-91
2022/11/18 09:54:19;;;;;;;18.40;12.57;;;;;;;;;;6568878;28;20525;-91
2022/11/18 09:58:00;;;;;;;24.37;14.77;;;;;;;;;;6569466;28;20174;-91
2022/11/18 10:01:12;;;;;;;24.40;15.37;;;;;;;;;;6545227;28;20192;-91
2022/11/18 10:04:22;;;;;;;19.93;12.90;;;;;;;;;;6553129;28;20213;-91
2022/11/18 10:07:39;;;;;;;22.47;14.80;;;;;;;;;;6568987;28;20177;-91
2022/11/18 10:10:53;;;;;;;23.83;14.10;;;;;;;;;;6552986;28;20177;-90
2022/11/18 10:14:06;;;;;;;21.50;14.10;;;;;;;;;;6570046;28;20185;-91
2022/11/18 10:17:34;;;;;;;24.90;15.43;;;;;;;;;;6570112;28;20280;-90
2022/11/18 10:20:44;;;;;;;24.67;14.83;;;;;;;;;;6553691;28;20577;-91
2022/11/18 10:23:59;;;;;;;21.63;13.97;;;;;;;;;;6570267;28;20223;-92
2022/11/18 10:27:11;;;;;;;25.60;15.57;;;;;;;;;;6569373;28;20231;-91
2022/11/18 10:30:23;;;;;;;22.67;13.90;;;;;;;;;;6571535;28;20187;-92
2022/11/18 10:33:34;;;;;;;24.33;15.13;;;;;;;;;;6553375;28;20184;-91
2022/11/18 10:37:00;;;;;;;21.37;13.80;;;;;;;;;;6553032;28;20538;-91
2022/11/18 10:40:21;;;;;;;30.27;17.07;;;;;;;;;;6553375;28;20185;-91
2022/11/18 10:43:46;;;;;;;34.63;19.60;;;;;;;;;;6568632;28;20177;-93
2022/11/18 10:47:19;;;;;;;28.43;16.27;;;;;;;;;;6552924;28;20220;-92
2022/11/18 10:50:31;;;;;;;22.97;14.77;;;;;;;;;;6568428;28;20181;-92
2022/11/18 10:53:42;;;;;;;32.20;18.33;;;;;;;;;;6552123;28;20699;-92
2022/11/18 10:56:52;;;;;;;31.13;18.93;;;;;;;;;;6570598;28;20177;-92
2022/11/18 11:00:03;;;;;;;32.07;19.43;;;;;;;;;;6569376;28;20188;-92
2022/11/18 11:03:23;;;;;;;27.27;16.83;;;;;;;;;;6568211;28;20211;-92
2022/11/18 11:06:34;;;;;;;26.87;17.07;;;;;;;;;;6552894;28;20213;-92
2022/11/18 11:09:57;;;;;;;22.07;14.03;;;;;;;;;;6568273;28;20205;-92
2022/11/18 11:13:11;;;;;;;23.87;14.07;;;;;;;;;;6552416;28;20177;-92
2022/11/18 11:16:22;;;;;;;36.97;20.93;;;;;;;;;;6569431;28;20189;-92
2022/11/18 11:19:48;;;;;;;36.20;18.20;;;;;;;;;;6551549;28;20603;-92
2022/11/18 11:22:59;;;;;;;24.43;14.30;;;;;;;;;;6567176;28;20185;-92
2022/11/18 11:26:09;;;;;;;29.57;14.47;;;;;;;;;;6573153;28;20279;-91
2022/11/18 11:29:36;;;;;;;57.17;13.83;;;;;;;;;;6573407;28;20185;-92
2022/11/18 11:33:05;;;;;;;10.80;6.87;;;;;;;;;;6570527;28;20205;-92
2022/11/18 11:36:15;;;;;;;15.27;9.33;;;;;;;;;;6571603;28;20185;-93
2022/11/18 11:39:26;;;;;;;16.53;10.20;;;;;;;;;;6572887;28;20188;-92
2022/11/18 11:42:48;;;;;;;14.83;9.90;;;;;;;;;;6556830;28;20196;-92
2022/11/18 11:46:07;;;;;;;16.40;10.13;;;;;;;;;;6571360;28;20248;-93
2022/11/18 11:49:22;;;;;;;33.80;17.20;;;;;;;;;;6573342;28;20185;-92
2022/11/18 11:52:38;;;;;;;19.23;11.70;;;;;;;;;;6555567;28;20268;-92
2022/11/18 11:56:02;;;;;;;17.07;10.53;;;;;;;;;;6573412;28;20527;-92
2022/11/18 11:59:26;;;;;;;19.93;11.20;;;;;;;;;;6571056;28;20520;-92
2022/11/18 12:02:39;;;;;;;7.27;5.83;;;;;;;;;;6573219;28;20180;-92
2022/11/18 12:05:49;;;;;;;14.47;9.57;;;;;;;;;;6571803;28;20217;-92
2022/11/18 12:09:17;;;;;;;20.03;12.47;;;;;;;;;;6555661;28;20548;-92
2022/11/18 12:12:34;;;;;;;12.70;8.43;;;;;;;;;;6571584;28;20173;-92
2022/11/18 12:15:47;;;;;;;11.27;7.47;;;;;;;;;;6555638;28;20249;-92
2022/11/18 12:19:07;;;;;;;16.93;10.83;;;;;;;;;;6571788;28;20188;-92
2022/11/18 12:22:18;;;;;;;15.03;9.67;;;;;;;;;;6573445;28;20268;-92
2022/11/18 12:25:49;;;;;;;10.87;7.73;;;;;;;;;;6572164;28;20264;-92
2022/11/18 12:29:19;;;;;;;13.27;8.73;;;;;;;;;;6569716;28;20181;-92
2022/11/18 12:32:41;;;;;;;12.03;7.97;;;;;;;;;;6560497;28;20192;-92
2022/11/18 12:35:52;;;;;;;15.60;10.90;;;;;;;;;;6571794;28;20166;-91
2022/11/18 12:39:21;;;;;;;13.50;8.77;;;;;;;;;;6554935;28;20177;-92
2022/11/18 12:46:04;;;;;;;13.60;8.23;;;;;;;;;;6571869;28;20235;-92
2022/11/18 12:49:21;;;;;;;13.67;9.13;;;;;;;;;;6570551;28;20173;-92
2022/11/18 12:52:31;;;;;;;11.37;6.67;;;;;;;;;;6571743;28;20189;-91
2022/11/18 12:55:43;;;;;;;11.43;7.87;;;;;;;;;;6572016;28;20323;-91
2022/11/18 12:58:54;;;;;;;12.33;9.20;;;;;;;;;;6555920;28;20177;-91
2022/11/18 13:02:14;;;;;;;13.53;9.53;;;;;;;;;;6571880;28;20185;-91
2022/11/18 13:05:26;;;;;;;15.03;10.30;;;;;;;;;;6554251;28;20215;-91
2022/11/18 13:08:37;;;;;;;9.63;7.00;;;;;;;;;;6554540;28;20185;-91
2022/11/18 13:11:55;;;;;;;11.33;8.17;;;;;;;;;;6573697;28;20177;-91
2022/11/18 13:18:49;;;;;;;9.97;6.60;;;;;;;;;;6573050;28;20223;-93
2022/11/18 13:25:31;;;;;;;13.87;9.40;;;;;;;;;;6571719;28;20247;-92
2022/11/18 13:28:53;;;;;;;13.47;9.10;;;;;;;;;;6554047;28;20181;-91
2022/11/18 13:32:03;;;;;;;15.03;11.20;;;;;;;;;;6570066;28;20181;-91
2022/11/18 13:35:15;;;;;;;14.43;9.67;;;;;;;;;;6569737;28;20181;-91
2022/11/18 13:38:25;;;;;;;14.40;9.23;;;;;;;;;;6553605;28;20208;-92
2022/11/18 13:41:37;;;;;;;15.63;9.87;;;;;;;;;;6570446;28;20187;-92
2022/11/18 13:44:56;;;;;;;13.80;9.53;;;;;;;;;;6571814;28;20555;-91
2022/11/18 13:48:09;;;;;;;14.07;9.13;;;;;;;;;;6553679;28;20628;-92
2022/11/18 13:51:20;;;;;;;12.77;8.43;;;;;;;;;;6571264;28;20223;-91
2022/11/18 13:54:30;;;;;;;18.33;11.17;;;;;;;;;;6571323;28;20208;-91
2022/11/18 13:57:45;;;;;;;18.67;12.23;;;;;;;;;;6553800;28;20196;-91
2022/11/18 14:00:56;;;;;;;16.00;8.20;;;;;;;;;;6569827;28;20216;-92
2022/11/18 14:04:15;;;;;;;11.30;8.57;;;;;;;;;;6553609;28;20209;-92
2022/11/18 14:07:29;;;;;;;9.73;7.10;;;;;;;;;;6553634;28;20192;-93
2022/11/18 14:10:43;;;;;;;8.37;6.47;;;;;;;;;;6570752;28;20185;-92
2022/11/18 14:13:53;;;;;;;17.50;11.13;;;;;;;;;;6551958;28;20181;-93
2022/11/18 14:17:24;;;;;;;15.17;9.47;;;;;;;;;;6551857;28;20255;-94
2022/11/18 14:20:35;;;;;;;18.23;12.87;;;;;;;;;;6553466;28;20188;-92
2022/11/18 14:23:45;;;;;;;14.97;10.83;;;;;;;;;;6553013;28;20181;-92
2022/11/18 14:26:57;;;;;;;14.70;10.33;;;;;;;;;;6569281;28;20248;-92
2022/11/18 14:30:24;;;;;;;12.17;8.80;;;;;;;;;;6570582;28;20219;-93
2022/11/18 14:33:36;;;;;;;14.70;10.03;;;;;;;;;;6553418;28;20173;-92
2022/11/18 14:36:46;;;;;;;13.33;9.13;;;;;;;;;;6553178;28;20341;-92
2022/11/18 14:39:57;;;;;;;14.90;9.93;;;;;;;;;;6553389;28;20642;-92
2022/11/18 14:43:15;;;;;;;12.27;8.37;;;;;;;;;;6537825;28;20217;-92
2022/11/18 14:46:26;;;;;;;13.73;9.60;;;;;;;;;;6552799;28;20296;-93
2022/11/18 14:49:36;;;;;;;12.97;9.20;;;;;;;;;;6552854;28;20185;-92
2022/11/18 14:52:47;;;;;;;13.23;9.10;;;;;;;;;;6552726;28;20184;-92
2022/11/18 14:55:58;;;;;;;19.60;13.03;;;;;;;;;;6552442;28;20181;-93
2022/11/18 14:59:13;;;;;;;13.77;9.97;;;;;;;;;;6569687;28;20260;-91
2022/11/18 15:02:23;;;;;;;20.60;13.53;;;;;;;;;;6551877;28;20699;-92
2022/11/18 15:05:33;;;;;;;14.27;9.50;;;;;;;;;;6553711;28;20228;-92
2022/11/18 15:08:44;;;;;;;17.83;12.13;;;;;;;;;;6551892;28;20184;-92
2022/11/18 15:11:56;;;;;;;14.07;9.07;;;;;;;;;;6552575;28;20184;-92
2022/11/18 15:15:06;;;;;;;16.40;10.50;;;;;;;;;;6569266;28;20185;-92
2022/11/18 15:18:18;;;;;;;11.70;9.33;;;;;;;;;;6569674;28;20177;-92
2022/11/18 15:21:29;;;;;;;13.93;9.80;;;;;;;;;;6570302;28;20169;-92
2022/11/18 15:24:39;;;;;;;11.57;8.53;;;;;;;;;;6569526;28;20201;-93
2022/11/18 15:27:49;;;;;;;13.47;9.23;;;;;;;;;;6585131;28;20549;-92
2022/11/18 15:31:00;;;;;;;15.60;10.50;;;;;;;;;;6584970;28;20208;-92
2022/11/18 15:34:10;;;;;;;13.80;8.63;;;;;;;;;;6584902;28;20181;-93
2022/11/18 15:37:22;;;;;;;12.23;9.10;;;;;;;;;;6579234;28;20177;-92
2022/11/18 15:40:32;;;;;;;16.73;11.30;;;;;;;;;;6551982;28;20239;-93
2022/11/18 15:43:45;;;;;;;13.70;9.67;;;;;;;;;;6552042;28;20177;-93
2022/11/18 15:46:56;;;;;;;13.23;8.37;;;;;;;;;;6568944;28;20189;-92
2022/11/18 15:50:06;;;;;;;16.87;10.60;;;;;;;;;;6551909;28;20177;-92
2022/11/18 15:53:16;;;;;;;11.53;8.50;;;;;;;;;;6550585;28;20558;-92
2022/11/18 15:56:28;;;;;;;14.90;9.20;;;;;;;;;;6550959;28;20174;-93
2022/11/18 15:59:38;;;;;;;21.90;14.10;;;;;;;;;;6551171;28;20174;-94
2022/11/18 16:02:49;;;;;;;12.03;8.50;;;;;;;;;;6531465;28;20707;-92
2022/11/18 16:05:59;;;;;;;16.87;10.63;;;;;;;;;;6545292;28;20205;-91
2022/11/18 16:09:10;;;;;;;19.77;12.30;;;;;;;;;;6565712;28;20284;-92
2022/11/18 16:16:00;;;;;;;23.40;14.53;;;;;;;;;;6563014;28;20708;-95
2022/11/18 16:19:11;;;;;;;28.50;16.03;;;;;;;;;;6555209;28;20216;-94
2022/11/18 16:22:21;;;;;;;23.37;15.00;;;;;;;;;;6573334;28;20193;-92
2022/11/18 16:25:32;;;;;;;18.37;13.37;;;;;;;;;;6554944;28;20705;-91
2022/11/18 16:28:42;;;;;;;24.53;13.67;;;;;;;;;;6535898;28;20255;-92
2022/11/18 16:31:53;;;;;;;22.67;13.00;;;;;;;;;;6554423;28;20174;-93
2022/11/18 16:35:03;;;;;;;21.57;12.33;;;;;;;;;;6570967;28;20647;-92
2022/11/18 16:38:14;;;;;;;17.07;11.97;;;;;;;;;;6554943;28;20177;-90
2022/11/18 16:41:30;;;;;;;19.40;12.27;;;;;;;;;;6570798;28;20189;-90
2022/11/18 16:44:41;;;;;;;19.97;11.43;;;;;;;;;;6569734;28;20197;-90
2022/11/18 16:47:51;;;;;;;25.47;13.40;;;;;;;;;;6550477;28;20272;-90
2022/11/18 16:51:21;;;;;;;21.23;13.60;;;;;;;;;;6572270;28;20717;-92
2022/11/18 16:54:32;;;;;;;13.43;9.03;;;;;;;;;;6549518;28;20193;-93
2022/11/18 16:57:42;;;;;;;18.03;11.90;;;;;;;;;;6529526;28;20178;-93
2022/11/18 17:00:52;;;;;;;24.20;15.63;;;;;;;;;;6529740;28;20240;-94
2022/11/18 17:04:03;;;;;;;19.23;11.87;;;;;;;;;;6548029;28;20206;-94
2022/11/18 17:07:14;;;;;;;20.13;12.87;;;;;;;;;;6529455;28;20174;-94
2022/11/18 17:10:24;;;;;;;19.60;12.43;;;;;;;;;;6530126;28;20541;-94
2022/11/18 17:13:35;;;;;;;18.77;12.33;;;;;;;;;;6545809;28;20263;-94
2022/11/18 17:16:46;;;;;;;19.17;12.27;;;;;;;;;;6513239;28;20189;-93
2022/11/18 17:19:56;;;;;;;26.67;15.93;;;;;;;;;;6529098;28;20533;-94
2022/11/18 17:23:06;;;;;;;25.60;15.20;;;;;;;;;;6528443;28;20643;-93
2022/11/18 17:26:18;;;;;;;18.30;11.73;;;;;;;;;;6528789;28;20250;-93
2022/11/18 17:29:31;;;;;;;20.37;12.33;;;;;;;;;;6529205;28;20177;-94
2022/11/18 17:32:42;;;;;;;17.63;10.93;;;;;;;;;;6529150;28;20189;-94
2022/11/18 17:36:05;;;;;;;16.70;11.40;;;;;;;;;;6529727;28;20213;-93
2022/11/18 17:39:17;;;;;;;14.30;10.23;;;;;;;;;;6525928;28;20209;-94
2022/11/18 17:42:27;;;;;;;23.40;13.33;;;;;;;;;;6569770;28;20185;-94
2022/11/18 17:45:39;;;;;;;20.10;12.57;;;;;;;;;;6577506;28;20204;-94
2022/11/18 17:48:53;;;;;;;18.63;11.63;;;;;;;;;;6555820;28;20186;-94
2022/11/18 17:52:03;;;;;;;21.10;13.77;;;;;;;;;;6547263;28;20262;-94
2022/11/18 17:55:14;;;;;;;14.03;8.87;;;;;;;;;;6554245;28;20185;-92
2022/11/18 17:58:24;;;;;;;17.07;11.40;;;;;;;;;;6556971;28;20219;-93
2022/11/18 18:01:35;;;;;;;14.60;10.27;;;;;;;;;;6572891;28;20254;-93
2022/11/18 18:04:46;;;;;;;21.33;13.73;;;;;;;;;;6569417;28;20267;-92
2022/11/18 18:07:58;;;;;;;19.10;13.23;;;;;;;;;;6570705;28;20680;-93
2022/11/18 18:11:16;;;;;;;24.00;16.93;;;;;;;;;;6571399;28;20173;-93
2022/11/18 18:14:26;;;;;;;16.53;11.20;;;;;;;;;;6553728;28;20234;-93
2022/11/18 18:17:36;;;;;;;14.00;9.97;;;;;;;;;;6552838;28;20177;-92
2022/11/18 18:20:47;;;;;;;16.53;10.77;;;;;;;;;;6552976;28;20284;-92
2022/11/18 18:23:57;;;;;;;15.87;10.47;;;;;;;;;;6551793;28;20182;-92
2022/11/18 18:27:08;;;;;;;14.13;9.47;;;;;;;;;;6550540;28;20264;-92
2022/11/18 18:30:18;;;;;;;15.00;10.40;;;;;;;;;;6537368;28;20276;-92
2022/11/18 18:33:28;;;;;;;16.53;10.40;;;;;;;;;;6539181;28;20554;-93
2022/11/18 18:36:39;;;;;;;19.20;10.77;;;;;;;;;;6535327;28;20185;-94
2022/11/18 18:39:49;;;;;;;15.20;9.77;;;;;;;;;;6552889;28;20535;-92
2022/11/18 18:43:01;;;;;;;21.97;13.80;;;;;;;;;;6553160;28;20220;-93
2022/11/18 18:46:28;;;;;;;15.43;10.83;;;;;;;;;;6567540;28;20296;-93
2022/11/18 18:49:39;;;;;;;17.67;12.77;;;;;;;;;;6544974;28;20529;-93
2022/11/18 18:52:49;;;;;;;18.97;12.33;;;;;;;;;;6547868;28;20218;-94
2022/11/18 18:55:59;;;;;;;16.07;10.07;;;;;;;;;;6549168;28;20195;-92
2022/11/18 18:59:10;;;;;;;15.30;11.30;;;;;;;;;;6567161;28;20212;-94
2022/11/18 19:02:20;;;;;;;15.27;10.20;;;;;;;;;;6559848;28;20178;-93
2022/11/18 19:05:31;;;;;;;21.83;13.17;;;;;;;;;;6570709;28;20213;-94
2022/11/18 19:08:43;;;;;;;26.37;16.03;;;;;;;;;;6552231;28;20241;-94
2022/11/18 19:15:23;;;;;;;19.53;12.57;;;;;;;;;;6560815;28;20200;-93
2022/11/18 19:18:35;;;;;;;17.70;11.57;;;;;;;;;;6550935;28;20611;-94
2022/11/18 19:21:49;;;;;;;14.27;8.47;;;;;;;;;;6551157;28;20532;-93
2022/11/18 19:25:00;;;;;;;12.17;8.83;;;;;;;;;;6548736;28;20600;-93